createdAt,value
2023-01-30T00:00:51.139Z,54.53
2023-01-30T00:03:53.889Z,58.60
2023-01-30T00:06:56.480Z,52.20
2023-01-30T00:10:00.425Z,53.47
2023-01-30T00:13:02.973Z,60.43
2023-01-30T00:16:06.378Z,58.03
2023-01-30T00:19:09.052Z,58.70
2023-01-30T00:22:11.630Z,55.90
2023-01-30T00:25:15.847Z,65.37
2023-01-30T00:28:18.617Z,59.63
2023-01-30T00:31:21.248Z,61.93
2023-01-30T00:34:23.820Z,60.50
2023-01-30T00:37:26.709Z,64.47
2023-01-30T00:40:30.908Z,61.80
2023-01-30T00:43:51.032Z,60.23
2023-01-30T00:47:09.115Z,55.53
2023-01-30T00:50:12.383Z,59.60
2023-01-30T00:53:16.759Z,55.43
2023-01-30T00:56:20.720Z,55.27
2023-01-30T00:59:23.401Z,53.17
2023-01-30T01:02:25.999Z,60.10
2023-01-30T01:05:29.646Z,56.73
2023-01-30T01:08:32.288Z,55.17
2023-01-30T01:11:36.666Z,53.93
2023-01-30T01:14:39.270Z,53.60
2023-01-30T01:17:42.911Z,51.97
2023-01-30T01:20:45.566Z,54.17
2023-01-30T01:23:51.181Z,46.73
2023-01-30T01:26:55.111Z,58.53
2023-01-30T01:29:57.731Z,52.63
2023-01-30T01:33:00.321Z,49.73
2023-01-30T01:36:04.658Z,55.37
2023-01-30T01:39:07.420Z,65.20
2023-01-30T01:42:11.463Z,50.23
2023-01-30T01:45:20.458Z,46.17
2023-01-30T01:48:28.757Z,52.63
2023-01-30T01:51:35.765Z,47.53
2023-01-30T01:54:43.209Z,61.40
2023-01-30T01:57:51.697Z,58.67
2023-01-30T02:00:57.862Z,47.80
2023-01-30T02:04:05.356Z,52.30
2023-01-30T02:07:09.636Z,57.63
2023-01-30T02:10:18.683Z,54.33
2023-01-30T02:13:22.883Z,55.37
2023-01-30T02:16:25.512Z,50.13
2023-01-30T02:19:40.263Z,57.37
2023-01-30T02:23:18.328Z,50.20
2023-01-30T02:27:00.440Z,52.87
2023-01-30T02:30:42.378Z,52.77
2023-01-30T02:33:52.998Z,50.30
2023-01-30T02:37:03.604Z,51.37
2023-01-30T02:40:18.979Z,59.70
2023-01-30T02:43:29.435Z,48.73
2023-01-30T02:46:41.837Z,43.70
2023-01-30T02:49:50.730Z,48.13
2023-01-30T02:52:54.523Z,41.33
2023-01-30T02:55:57.604Z,41.43
2023-01-30T02:59:06.045Z,50.53
2023-01-30T03:02:45.669Z,48.53
2023-01-30T03:06:02.147Z,43.27
2023-01-30T03:09:17.338Z,42.70
2023-01-30T03:12:29.104Z,41.13
2023-01-30T03:15:36.671Z,44.43
2023-01-30T03:18:42.793Z,35.70
2023-01-30T03:21:47.088Z,33.63
2023-01-30T03:24:51.005Z,38.47
2023-01-30T03:27:56.010Z,32.30
2023-01-30T03:30:58.727Z,32.63
2023-01-30T03:34:02.794Z,31.40
2023-01-30T03:37:05.687Z,28.57
2023-01-30T03:40:09.814Z,30.37
2023-01-30T03:43:12.463Z,28.67
2023-01-30T03:46:15.157Z,33.23
2023-01-30T03:49:19.125Z,28.50
2023-01-30T03:52:21.701Z,31.63
2023-01-30T03:55:24.299Z,27.13
2023-01-30T03:58:26.935Z,30.17
2023-01-30T04:01:29.544Z,27.80
2023-01-30T04:04:33.489Z,25.87
2023-01-30T04:07:36.103Z,25.83
2023-01-30T04:10:38.688Z,22.40
2023-01-30T04:13:41.482Z,19.87
2023-01-30T04:16:44.208Z,20.57
2023-01-30T04:19:48.197Z,23.00
2023-01-30T04:22:50.769Z,24.37
2023-01-30T04:25:53.345Z,23.80
2023-01-30T04:28:56.073Z,23.93
2023-01-30T04:31:58.678Z,21.70
2023-01-30T04:35:02.671Z,22.47
2023-01-30T04:38:05.259Z,22.07
2023-01-30T04:41:07.920Z,21.97
2023-01-30T04:44:10.584Z,23.13
2023-01-30T04:47:13.232Z,20.90
2023-01-30T04:50:17.430Z,14.37
2023-01-30T04:53:21.042Z,25.00
2023-01-30T04:56:23.629Z,16.47
2023-01-30T04:59:26.360Z,19.30
2023-01-30T05:02:28.928Z,17.93
2023-01-30T05:05:34.101Z,19.23
2023-01-30T05:08:36.675Z,29.97
2023-01-30T05:11:39.443Z,23.73
2023-01-30T05:14:42.031Z,20.60
2023-01-30T05:17:44.897Z,16.50
2023-01-30T05:20:48.843Z,19.00
2023-01-30T05:23:52.449Z,10.93
2023-01-30T05:26:55.040Z,20.93
2023-01-30T05:29:57.609Z,18.10
2023-01-30T05:33:00.228Z,11.10
2023-01-30T05:36:04.345Z,12.77
2023-01-30T05:39:07.029Z,10.53
2023-01-30T05:42:09.802Z,11.53
2023-01-30T05:45:12.631Z,16.27
2023-01-30T05:48:15.209Z,9.97
2023-01-30T05:51:21.365Z,11.23
2023-01-30T05:54:24.092Z,10.87
2023-01-30T05:57:26.795Z,12.13
2023-01-30T06:00:29.578Z,18.07
2023-01-30T06:03:32.443Z,10.83
2023-01-30T06:06:36.802Z,10.70
2023-01-30T06:09:39.383Z,15.20
2023-01-30T06:12:41.971Z,11.27
2023-01-30T06:15:44.604Z,17.30
2023-01-30T06:18:47.916Z,15.80
2023-01-30T06:21:51.851Z,17.77
2023-01-30T06:24:54.470Z,15.60
2023-01-30T06:27:57.046Z,14.53
2023-01-30T06:30:59.904Z,12.63
2023-01-30T06:34:02.589Z,13.20
2023-01-30T06:37:06.518Z,12.23
2023-01-30T06:40:10.746Z,22.77
2023-01-30T06:43:13.398Z,25.67
2023-01-30T06:46:15.987Z,18.07
2023-01-30T06:49:18.610Z,15.70
2023-01-30T06:52:22.563Z,14.67
2023-01-30T06:55:28.352Z,13.23
2023-01-30T06:58:30.948Z,17.00
2023-01-30T07:01:33.612Z,12.90
2023-01-30T07:04:36.242Z,14.17
2023-01-30T07:07:40.289Z,12.87
2023-01-30T07:10:43.944Z,15.30
2023-01-30T07:13:46.523Z,16.77
2023-01-30T07:16:49.167Z,18.30
2023-01-30T07:19:51.989Z,9.77
2023-01-30T07:22:57.119Z,13.37
2023-01-30T07:25:59.728Z,17.57
2023-01-30T07:29:02.327Z,7.77
2023-01-30T07:32:06.118Z,22.23
2023-01-30T07:35:09.335Z,18.53
2023-01-30T07:38:13.312Z,15.43
2023-01-30T07:41:15.911Z,16.47
2023-01-30T07:44:18.476Z,15.20
2023-01-30T07:47:21.059Z,17.00
2023-01-30T07:50:23.810Z,21.00
2023-01-30T07:53:27.766Z,33.00
2023-01-30T07:56:31.232Z,19.43
2023-01-30T07:59:33.806Z,23.10
2023-01-30T08:02:36.403Z,31.43
2023-01-30T08:05:39.030Z,31.97
2023-01-30T08:08:43.910Z,27.40
2023-01-30T08:11:46.505Z,34.37
2023-01-30T08:14:49.095Z,26.87
2023-01-30T08:17:56.183Z,30.60
2023-01-30T08:20:59.023Z,33.67
2023-01-30T08:24:02.999Z,29.97
2023-01-30T08:27:05.596Z,37.13
2023-01-30T08:30:09.902Z,43.83
2023-01-30T08:33:12.490Z,43.63
2023-01-30T08:36:15.190Z,32.57
2023-01-30T08:39:19.473Z,38.50
2023-01-30T08:42:22.090Z,23.00
2023-01-30T08:45:24.671Z,32.20
2023-01-30T08:48:29.890Z,29.63
2023-01-30T08:51:34.701Z,34.40
2023-01-30T08:54:38.647Z,23.80
2023-01-30T08:57:41.309Z,35.93
2023-01-30T09:00:45.011Z,25.57
2023-01-30T09:03:48.920Z,35.30
2023-01-30T09:06:51.546Z,33.30
2023-01-30T09:09:55.467Z,31.60
2023-01-30T09:12:58.307Z,35.13
2023-01-30T09:16:00.971Z,36.30
2023-01-30T09:19:03.562Z,28.87
2023-01-30T09:22:07.279Z,32.80
2023-01-30T09:25:11.438Z,37.67
2023-01-30T09:28:14.563Z,31.53
2023-01-30T09:31:17.301Z,31.03
2023-01-30T09:34:20.260Z,38.47
2023-01-30T09:37:23.078Z,29.90
2023-01-30T09:40:29.732Z,19.97
2023-01-30T09:43:48.590Z,31.83
2023-01-30T09:47:04.740Z,27.00
2023-01-30T09:50:24.794Z,31.27
2023-01-30T09:53:35.999Z,32.47
2023-01-30T09:56:39.977Z,29.00
2023-01-30T09:59:53.733Z,47.80
2023-01-30T10:03:04.746Z,29.57
2023-01-30T10:06:12.025Z,36.57
2023-01-30T10:09:25.427Z,33.40
2023-01-30T10:12:45.112Z,38.20
2023-01-30T10:15:56.218Z,30.90
2023-01-30T10:19:23.375Z,29.27
2023-01-30T10:22:46.434Z,32.83
2023-01-30T10:25:51.846Z,26.10
2023-01-30T10:29:08.550Z,34.57
2023-01-30T10:32:16.303Z,29.60
2023-01-30T10:35:23.292Z,27.50
2023-01-30T10:38:32.350Z,24.87
2023-01-30T10:41:39.272Z,31.70
2023-01-30T10:44:43.633Z,33.97
2023-01-30T10:47:56.178Z,32.73
2023-01-30T10:51:01.010Z,28.97
2023-01-30T10:54:13.235Z,31.33
2023-01-30T10:57:25.295Z,25.57
2023-01-30T11:00:33.558Z,27.77
2023-01-30T11:03:42.367Z,16.23
2023-01-30T11:06:45.168Z,27.30
2023-01-30T11:09:49.652Z,28.80
2023-01-30T11:12:56.638Z,31.00
2023-01-30T11:16:07.784Z,21.77
2023-01-30T11:19:21.227Z,20.03
2023-01-30T11:22:26.967Z,19.27
2023-01-30T11:25:29.792Z,17.93
2023-01-30T11:28:40.583Z,8.53
2023-01-30T11:31:50.933Z,11.97
2023-01-30T11:35:05.233Z,4.70
2023-01-30T11:38:23.096Z,8.50
2023-01-30T11:41:25.728Z,7.47
2023-01-30T11:44:29.730Z,9.77
2023-01-30T11:47:33.720Z,14.13
2023-01-30T11:50:46.563Z,16.80
2023-01-30T11:53:58.344Z,13.83
2023-01-30T12:08:40.499Z,10.83
2023-01-30T12:26:37.136Z,18.60
2023-01-30T12:29:49.967Z,18.53
2023-01-30T12:32:57.602Z,21.07
2023-01-30T12:36:10.706Z,27.50
2023-01-30T12:39:23.404Z,18.63
2023-01-30T12:42:58.341Z,13.17
2023-01-30T12:46:11.438Z,15.23
2023-01-30T12:49:32.172Z,15.67
2023-01-30T12:52:57.461Z,13.10
2023-01-30T12:56:23.203Z,14.70
2023-01-30T12:59:35.700Z,12.37
2023-01-30T13:02:49.798Z,11.00
2023-01-30T13:05:57.980Z,12.60
2023-01-30T13:09:15.646Z,15.40
2023-01-30T13:12:24.682Z,15.43
2023-01-30T13:15:36.636Z,21.63
2023-01-30T13:18:44.241Z,18.93
2023-01-30T13:21:55.156Z,26.50
2023-01-30T13:25:07.818Z,28.77
2023-01-30T13:28:14.588Z,30.30
2023-01-30T13:31:22.339Z,33.67
2023-01-30T13:34:29.030Z,32.07
2023-01-30T13:37:33.078Z,38.80
2023-01-30T13:40:40.267Z,37.33
2023-01-30T13:43:47.795Z,31.13
2023-01-30T13:46:54.500Z,42.27
2023-01-30T13:50:11.111Z,32.53
2023-01-30T13:53:20.361Z,28.20
2023-01-30T13:56:41.509Z,28.07
2023-01-30T14:00:09.375Z,31.27
2023-01-30T14:03:31.569Z,20.50
2023-01-30T14:06:37.603Z,19.40
2023-01-30T14:09:43.707Z,18.40
2023-01-30T14:12:48.634Z,22.23
2023-01-30T14:15:56.438Z,22.90
2023-01-30T14:19:00.495Z,24.37
2023-01-30T14:22:17.600Z,36.07
2023-01-30T14:25:48.654Z,22.80
2023-01-30T14:28:55.415Z,38.97
2023-01-30T14:31:58.241Z,38.50
2023-01-30T14:35:21.568Z,27.47
2023-01-30T14:38:24.220Z,23.17
2023-01-30T14:41:28.577Z,23.40
2023-01-30T14:45:00.325Z,28.10
2023-01-30T14:48:28.645Z,28.93
2023-01-30T14:51:36.637Z,37.00
2023-01-30T14:54:48.843Z,28.60
2023-01-30T14:57:56.899Z,35.50
2023-01-30T15:01:00.702Z,40.70
2023-01-30T15:04:05.567Z,31.70
2023-01-30T15:07:14.023Z,33.43
2023-01-30T15:10:32.497Z,24.97
2023-01-30T15:13:45.347Z,32.83
2023-01-30T15:17:05.607Z,27.07
2023-01-30T15:20:21.698Z,29.50
2023-01-30T15:23:53.935Z,30.87
2023-01-30T15:27:07.960Z,24.97
2023-01-30T15:30:20.262Z,23.53
2023-01-30T15:33:30.966Z,25.63
2023-01-30T15:36:38.722Z,29.80
2023-01-30T15:39:42.673Z,35.87
2023-01-30T15:42:45.727Z,31.27
2023-01-30T15:46:04.933Z,28.77
2023-01-30T15:49:27.103Z,39.10
2023-01-30T15:52:40.045Z,42.90
2023-01-30T15:55:45.115Z,30.03
2023-01-30T15:58:48.162Z,24.90
2023-01-30T16:02:00.221Z,33.70
2023-01-30T16:05:13.946Z,28.73
2023-01-30T16:08:22.023Z,34.00
2023-01-30T16:11:40.431Z,37.30
2023-01-30T16:14:43.063Z,38.20
2023-01-30T16:17:54.232Z,40.93
2023-01-30T16:21:02.461Z,41.80
2023-01-30T16:24:07.259Z,35.57
2023-01-30T16:27:20.937Z,38.57
2023-01-30T16:30:26.886Z,43.83
2023-01-30T16:33:35.979Z,41.40
2023-01-30T16:36:43.305Z,41.53
2023-01-30T16:39:48.029Z,31.67
2023-01-30T16:42:59.794Z,42.50
2023-01-30T16:46:46.916Z,36.93
2023-01-30T16:49:50.815Z,39.33
2023-01-30T16:52:55.720Z,29.23
2023-01-30T16:56:01.573Z,28.67
2023-01-30T16:59:05.576Z,36.23
2023-01-30T17:02:08.563Z,45.20
2023-01-30T17:05:19.485Z,43.40
2023-01-30T17:08:48.547Z,38.90
2023-01-30T17:15:32.229Z,36.87
2023-01-30T17:18:34.820Z,38.80
2023-01-30T17:21:48.811Z,26.17
2023-01-30T17:24:51.601Z,29.37
2023-01-30T17:27:54.213Z,28.33
2023-01-30T17:30:58.240Z,26.80
2023-01-30T17:34:00.889Z,20.50
2023-01-30T17:37:03.437Z,26.73
2023-01-30T17:40:17.399Z,22.77
2023-01-30T17:43:20.098Z,33.50
2023-01-30T17:46:33.097Z,27.43
2023-01-30T17:49:35.680Z,24.40
2023-01-30T17:52:38.263Z,30.53
2023-01-30T17:55:40.853Z,30.67
2023-01-30T17:58:43.414Z,30.27
2023-01-30T18:01:48.973Z,32.07
2023-01-30T18:04:51.703Z,27.70
2023-01-30T18:07:54.279Z,22.73
2023-01-30T18:10:56.862Z,28.53
2023-01-30T18:13:59.645Z,22.23
2023-01-30T18:17:03.985Z,19.47
2023-01-30T18:20:07.453Z,18.00
2023-01-30T18:23:10.133Z,20.10
2023-01-30T18:26:13.648Z,22.73
2023-01-30T18:29:16.466Z,23.67
2023-01-30T18:32:20.395Z,26.43
2023-01-30T18:35:23.722Z,28.37
2023-01-30T18:38:27.935Z,25.87
2023-01-30T18:41:31.167Z,20.33
2023-01-30T18:44:33.730Z,26.80
2023-01-30T18:47:37.683Z,30.07
2023-01-30T18:50:40.351Z,30.03
2023-01-30T18:53:43.907Z,35.10
2023-01-30T18:56:46.545Z,24.53
2023-01-30T19:13:15.359Z,34.10
2023-01-30T19:16:19.050Z,29.70
2023-01-30T19:19:21.986Z,34.23
2023-01-30T19:22:24.928Z,31.40
2023-01-30T19:25:27.576Z,29.10
2023-01-30T19:28:32.627Z,33.57
2023-01-30T19:31:35.404Z,34.87
2023-01-30T19:34:38.425Z,32.37
2023-01-30T19:37:41.129Z,35.97
2023-01-30T19:40:45.065Z,29.13
2023-01-30T19:43:49.190Z,35.20
2023-01-30T19:46:51.824Z,29.67
2023-01-30T19:49:55.802Z,26.87
2023-01-30T19:52:58.429Z,27.73
2023-01-30T19:56:01.820Z,25.80
2023-01-30T19:59:06.919Z,22.37
2023-01-30T20:02:10.935Z,22.70
2023-01-30T20:05:13.544Z,26.53
2023-01-30T20:08:30.524Z,23.70
2023-01-30T20:11:35.881Z,22.57
2023-01-30T20:14:39.804Z,31.03
2023-01-30T20:17:42.417Z,28.20
2023-01-30T20:20:45.002Z,29.77
2023-01-30T20:23:48.586Z,29.80
2023-01-30T20:26:51.254Z,25.70
2023-01-30T20:29:55.244Z,24.87
2023-01-30T20:32:57.849Z,25.07
2023-01-30T20:36:02.095Z,21.97
2023-01-30T20:39:06.422Z,27.00
2023-01-30T20:42:09.354Z,26.47
2023-01-30T20:45:13.348Z,15.57
2023-01-30T20:48:15.932Z,29.97
2023-01-30T20:51:20.601Z,30.53
2023-01-30T20:54:24.305Z,24.60
2023-01-30T20:57:27.295Z,29.80
2023-01-30T21:00:31.245Z,29.57
2023-01-30T21:03:33.851Z,14.60
2023-01-30T21:06:43.598Z,21.80
2023-01-30T21:09:47.969Z,18.63
2023-01-30T21:12:50.560Z,27.93
2023-01-30T21:16:03.044Z,21.63
2023-01-30T21:19:07.736Z,22.13
2023-01-30T21:22:10.916Z,24.90
2023-01-30T21:25:13.538Z,21.40
2023-01-30T21:28:16.106Z,27.40
2023-01-30T21:31:22.750Z,23.40
2023-01-30T21:34:26.240Z,26.57
2023-01-30T21:37:46.621Z,25.00
2023-01-30T21:41:10.279Z,21.33
2023-01-30T21:44:13.931Z,25.03
2023-01-30T21:47:17.952Z,19.30
2023-01-30T21:50:20.914Z,17.63
2023-01-30T21:53:23.496Z,27.10
2023-01-30T21:56:26.281Z,20.73
2023-01-30T21:59:29.082Z,20.03
2023-01-30T22:02:33.071Z,21.77
2023-01-30T22:05:36.514Z,27.90
2023-01-30T22:08:40.313Z,20.67
2023-01-30T22:11:43.239Z,25.00
2023-01-30T22:14:45.837Z,19.63
2023-01-30T22:17:50.264Z,12.63
2023-01-30T22:20:52.970Z,22.13
2023-01-30T22:23:56.807Z,22.67
2023-01-30T22:26:59.449Z,22.83
2023-01-30T22:30:02.063Z,27.73
2023-01-30T22:33:06.095Z,14.30
2023-01-30T22:36:09.124Z,24.77
2023-01-30T22:39:11.990Z,22.10
2023-01-30T22:42:14.540Z,17.30
2023-01-30T22:45:17.630Z,17.27
2023-01-30T22:48:21.807Z,19.20
2023-01-30T22:51:25.854Z,15.37
2023-01-30T22:54:28.723Z,20.50
2023-01-30T22:57:31.319Z,17.03
2023-01-30T23:00:33.881Z,11.80
2023-01-30T23:03:38.148Z,18.77
2023-01-30T23:06:41.969Z,15.37
2023-01-30T23:09:44.596Z,14.70
2023-01-30T23:13:04.876Z,16.73
2023-01-30T23:16:07.533Z,10.93
2023-01-30T23:19:12.553Z,17.47
2023-01-30T23:22:15.153Z,13.87
2023-01-30T23:25:18.238Z,15.73
2023-01-30T23:28:21.097Z,17.07
2023-01-30T23:31:26.216Z,11.47
2023-01-30T23:34:30.192Z,16.77
2023-01-30T23:37:46.747Z,13.00
2023-01-30T23:40:50.100Z,23.90
2023-01-30T23:43:53.464Z,8.90
2023-01-30T23:46:56.043Z,9.73
2023-01-30T23:50:00.005Z,16.03
2023-01-30T23:53:02.621Z,13.57
2023-01-30T23:56:06.669Z,10.83
2023-01-30T23:59:09.615Z,16.10
